PWSweather.com
Personal Weather Stations
Station Observations
ME1989
Sicily, Barcellona Pozzo Di GottoIT

SicilyBarcellona Pozzo Di GottoIT

Lat: 38.1487398, Lon: 15.2113962

Elevation: 131

Station Type: Peet Bros

Latest ConditionsUpdated 9:10:01 AM GMT+01:01 Tuesday, Jul 26, 2016
Currently Today's Max Today's Min Today's Average
Temperature 74.9°F23.8°C 76.9°F24.9°C 71.8°F22.1°C 73.4°F23.0°C
Dew Point 68.6°F20.3°C 69.8°F21.0°C 66.3°F19.1°C 67.6°F19.8°C
Winds 1.2 mph S1.9 kmh S 6.9 mph S11.1 kmh S - 3.9 mph 6.3 kmh
Wind Gusts 4.6 mph7.4 kmh 8.1 mph13.0 kmh - -
Humidity 81% 86% 76% 82%
Pressure 29.93 in1013.5 mb 29.93 in1013.5 mb 29.88 in1011.9 mb -
Precipitation - 0.07 in1.8 mm - -
Hour Temp Dew Point Humidity Winds Wind Gusts Pressure Precip Precip Rate Daily Precip Total
09:10 AM 74.9°F23.8°C 68.6°F20.3°C 81% 1.2 mph S1.9 kmh S 4.6 mph7.4 kmh 29.93 in1013.5 mb - 0.06 in1.5 mm 0.07 in1.8 mm
09:00 AM 74.8°F23.8°C 68.2°F20.1°C 80% 4.6 mph SW7.4 kmh SW 5.8 mph9.3 kmh 29.93 in1013.5 mb - 0.02 in0.5 mm 0.02 in0.5 mm
08:50 AM 76.8°F24.9°C 69.8°F21.0°C 79% 6.9 mph WSW11.1 kmh WSW 8.1 mph13.0 kmh 29.92 in1013.2 mb - 0.00 in0.0 mm 0.00 in0.0 mm
08:40 AM 76.9°F24.9°C 69.1°F20.6°C 77% Calm Calm -- 29.92 in1013.2 mb - 0.00 in0.0 mm 0.00 in0.0 mm
08:30 AM 76.7°F24.8°C 68.9°F20.5°C 77% 1.2 mph SSW1.9 kmh SSW -- 29.92 in1013.2 mb - 0.00 in0.0 mm 0.00 in0.0 mm
08:20 AM 76.8°F24.9°C 68.7°F20.4°C 76% 5.8 mph WSW9.3 kmh WSW 6.9 mph11.1 kmh 29.92 in1013.2 mb - 0.00 in0.0 mm 0.00 in0.0 mm
08:10 AM 76.6°F24.8°C 68.5°F20.3°C 76% 4.6 mph WSW7.4 kmh WSW 5.8 mph9.3 kmh 29.92 in1013.2 mb - 0.00 in0.0 mm 0.00 in0.0 mm
08:00 AM 76.7°F24.8°C 68.6°F20.3°C 76% 3.5 mph SW5.6 kmh SW 4.6 mph7.4 kmh 29.92 in1013.2 mb - 0.00 in0.0 mm 0.00 in0.0 mm
07:50 AM 76.2°F24.6°C 68.4°F20.2°C 77% Calm Calm 2.3 mph3.7 kmh 29.92 in1013.2 mb - 0.00 in0.0 mm 0.00 in0.0 mm
07:40 AM 75.9°F24.4°C 68.2°F20.1°C 77% 3.5 mph SSW5.6 kmh SSW 5.8 mph9.3 kmh 29.91 in1012.9 mb - 0.00 in0.0 mm 0.00 in0.0 mm
07:30 AM 75.8°F24.3°C 68.4°F20.2°C 78% 4.6 mph S7.4 kmh S 4.6 mph7.4 kmh 29.91 in1012.9 mb - 0.00 in0.0 mm 0.00 in0.0 mm
07:20 AM 75.4°F24.1°C 68.4°F20.2°C 79% 3.5 mph SSW5.6 kmh SSW 5.8 mph9.3 kmh 29.91 in1012.9 mb - 0.00 in0.0 mm 0.00 in0.0 mm
07:10 AM 75.2°F24.0°C 68.3°F20.2°C 79% 1.2 mph SSW1.9 kmh SSW 4.6 mph7.4 kmh 29.91 in1012.9 mb - 0.00 in0.0 mm 0.00 in0.0 mm
07:00 AM 75.0°F23.9°C 68.1°F20.1°C 79% 3.5 mph SSW5.6 kmh SSW 4.6 mph7.4 kmh 29.91 in1012.9 mb - 0.00 in0.0 mm 0.00 in0.0 mm
06:50 AM 75.0°F23.9°C 68.4°F20.2°C 80% 3.5 mph S5.6 kmh S 4.6 mph7.4 kmh 29.91 in1012.9 mb - 0.00 in0.0 mm 0.00 in0.0 mm
06:40 AM 74.7°F23.7°C 68.2°F20.1°C 80% 3.5 mph SSW5.6 kmh SSW 5.8 mph9.3 kmh 29.91 in1012.9 mb - 0.00 in0.0 mm 0.00 in0.0 mm
06:30 AM 74.3°F23.5°C 67.7°F19.8°C 80% 3.5 mph SSW5.6 kmh SSW 6.9 mph11.1 kmh 29.90 in1012.5 mb - 0.00 in0.0 mm 0.00 in0.0 mm
06:20 AM 73.8°F23.2°C 67.6°F19.8°C 81% 4.6 mph S7.4 kmh S 5.8 mph9.3 kmh 29.90 in1012.5 mb - 0.00 in0.0 mm 0.00 in0.0 mm
06:10 AM 73.5°F23.1°C 67.3°F19.6°C 81% 3.5 mph S5.6 kmh S 5.8 mph9.3 kmh 29.90 in1012.5 mb - 0.00 in0.0 mm 0.00 in0.0 mm
06:00 AM 73.1°F22.8°C 67.3°F19.6°C 82% 4.6 mph SSW7.4 kmh SSW 5.8 mph9.3 kmh 29.90 in1012.5 mb - 0.00 in0.0 mm 0.00 in0.0 mm
05:50 AM 72.8°F22.7°C 66.9°F19.4°C 82% 4.6 mph S7.4 kmh S 5.8 mph9.3 kmh 29.90 in1012.5 mb - 0.00 in0.0 mm 0.00 in0.0 mm
05:40 AM 72.9°F22.7°C 66.7°F19.3°C 81% 4.6 mph S7.4 kmh S 5.8 mph9.3 kmh 29.90 in1012.5 mb - 0.00 in0.0 mm 0.00 in0.0 mm
05:30 AM 73.0°F22.8°C 66.5°F19.2°C 80% 4.6 mph S7.4 kmh S 5.8 mph9.3 kmh 29.89 in1012.2 mb - 0.00 in0.0 mm 0.00 in0.0 mm
05:20 AM 72.9°F22.7°C 66.4°F19.1°C 80% 4.6 mph S7.4 kmh S 5.8 mph9.3 kmh 29.89 in1012.2 mb - 0.00 in0.0 mm 0.00 in0.0 mm
05:10 AM 72.5°F22.5°C 66.3°F19.1°C 81% 5.8 mph S9.3 kmh S 8.1 mph13.0 kmh 29.89 in1012.2 mb - 0.00 in0.0 mm 0.00 in0.0 mm
05:00 AM 72.4°F22.4°C 66.6°F19.2°C 82% 5.8 mph S9.3 kmh S 6.9 mph11.1 kmh 29.89 in1012.2 mb - 0.00 in0.0 mm 0.00 in0.0 mm
04:50 AM 72.6°F22.6°C 66.5°F19.2°C 81% 5.8 mph S9.3 kmh S 8.1 mph13.0 kmh 29.89 in1012.2 mb - 0.00 in0.0 mm 0.00 in0.0 mm
04:40 AM 72.7°F22.6°C 66.6°F19.2°C 81% 4.6 mph SSW7.4 kmh SSW 5.8 mph9.3 kmh 29.89 in1012.2 mb - 0.00 in0.0 mm 0.00 in0.0 mm
04:30 AM 72.6°F22.6°C 66.8°F19.3°C 82% 3.5 mph SW5.6 kmh SW 4.6 mph7.4 kmh 29.89 in1012.2 mb - 0.00 in0.0 mm 0.00 in0.0 mm
04:20 AM 72.1°F22.3°C 66.6°F19.2°C 83% 4.6 mph S7.4 kmh S 5.8 mph9.3 kmh 29.89 in1012.2 mb - 0.00 in0.0 mm 0.00 in0.0 mm
04:10 AM 72.1°F22.3°C 67.0°F19.4°C 84% 3.5 mph WSW5.6 kmh WSW 5.8 mph9.3 kmh 29.89 in1012.2 mb - 0.00 in0.0 mm 0.00 in0.0 mm
04:00 AM 71.9°F22.2°C 66.8°F19.3°C 84% 5.8 mph S9.3 kmh S 8.1 mph13.0 kmh 29.89 in1012.2 mb - 0.00 in0.0 mm 0.00 in0.0 mm
03:50 AM 71.8°F22.1°C 67.0°F19.4°C 85% 4.6 mph S7.4 kmh S 4.6 mph7.4 kmh 29.89 in1012.2 mb - 0.00 in0.0 mm 0.00 in0.0 mm
03:40 AM 71.9°F22.2°C 67.2°F19.6°C 85% 2.3 mph S3.7 kmh S 3.5 mph5.6 kmh 29.89 in1012.2 mb - 0.00 in0.0 mm 0.00 in0.0 mm
03:30 AM 71.9°F22.2°C 66.8°F19.3°C 84% 3.5 mph S5.6 kmh S 4.6 mph7.4 kmh 29.89 in1012.2 mb - 0.00 in0.0 mm 0.00 in0.0 mm
03:20 AM 71.9°F22.2°C 67.1°F19.5°C 85% 4.6 mph S7.4 kmh S 5.8 mph9.3 kmh 29.89 in1012.2 mb - 0.00 in0.0 mm 0.00 in0.0 mm
03:10 AM 72.0°F22.2°C 66.9°F19.4°C 84% 3.5 mph S5.6 kmh S 5.8 mph9.3 kmh 29.89 in1012.2 mb - 0.00 in0.0 mm 0.00 in0.0 mm
03:00 AM 71.9°F22.2°C 67.1°F19.5°C 85% 2.3 mph S3.7 kmh S 4.6 mph7.4 kmh 29.89 in1012.2 mb - 0.00 in0.0 mm 0.00 in0.0 mm
02:50 AM 72.0°F22.2°C 67.2°F19.6°C 85% 2.3 mph S3.7 kmh S 4.6 mph7.4 kmh 29.89 in1012.2 mb - 0.00 in0.0 mm 0.00 in0.0 mm
02:40 AM 71.9°F22.2°C 67.1°F19.5°C 85% 3.5 mph S5.6 kmh S 4.6 mph7.4 kmh 29.88 in1011.9 mb - 0.00 in0.0 mm 0.00 in0.0 mm
02:30 AM 72.1°F22.3°C 67.0°F19.4°C 84% 3.5 mph S5.6 kmh S 4.6 mph7.4 kmh 29.89 in1012.2 mb - 0.00 in0.0 mm 0.00 in0.0 mm
02:20 AM 72.5°F22.5°C 67.4°F19.7°C 84% 4.6 mph S7.4 kmh S 5.8 mph9.3 kmh 29.88 in1011.9 mb - 0.00 in0.0 mm 0.00 in0.0 mm
02:10 AM 73.0°F22.8°C 67.5°F19.7°C 83% 3.5 mph S5.6 kmh S 5.8 mph9.3 kmh 29.88 in1011.9 mb - 0.00 in0.0 mm 0.00 in0.0 mm
02:00 AM 72.8°F22.7°C 67.3°F19.6°C 83% 4.6 mph SSW7.4 kmh SSW 6.9 mph11.1 kmh 29.88 in1011.9 mb - 0.00 in0.0 mm 0.00 in0.0 mm
01:50 AM 72.6°F22.6°C 67.5°F19.7°C 84% 3.5 mph S5.6 kmh S 4.6 mph7.4 kmh 29.88 in1011.9 mb - 0.00 in0.0 mm 0.00 in0.0 mm
01:40 AM 72.3°F22.4°C 67.2°F19.6°C 84% 4.6 mph SSW7.4 kmh SSW 5.8 mph9.3 kmh 29.88 in1011.9 mb - 0.00 in0.0 mm 0.00 in0.0 mm
01:30 AM 72.0°F22.2°C 67.6°F19.8°C 86% 5.8 mph S9.3 kmh S 6.9 mph11.1 kmh 29.88 in1011.9 mb - 0.00 in0.0 mm 0.00 in0.0 mm
01:20 AM 72.3°F22.4°C 67.5°F19.7°C 85% 3.5 mph S5.6 kmh S 5.8 mph9.3 kmh 29.88 in1011.9 mb - 0.00 in0.0 mm 0.00 in0.0 mm
01:10 AM 72.4°F22.4°C 67.6°F19.8°C 85% 6.9 mph S11.1 kmh S 8.1 mph13.0 kmh 29.88 in1011.9 mb - 0.00 in0.0 mm 0.00 in0.0 mm
01:00 AM 72.5°F22.5°C 67.7°F19.8°C 85% 3.5 mph SSW5.6 kmh SSW 6.9 mph11.1 kmh 29.88 in1011.9 mb - 0.00 in0.0 mm 0.00 in0.0 mm
12:50 AM 72.3°F22.4°C 67.5°F19.7°C 85% 3.5 mph S5.6 kmh S 5.8 mph9.3 kmh 29.88 in1011.9 mb - 0.00 in0.0 mm 0.00 in0.0 mm
12:40 AM 72.2°F22.3°C 67.4°F19.7°C 85% 4.6 mph S7.4 kmh S 6.9 mph11.1 kmh 29.89 in1012.2 mb - 0.00 in0.0 mm 0.00 in0.0 mm
12:30 AM 72.5°F22.5°C 67.8°F19.9°C 85% 3.5 mph S5.6 kmh S 4.6 mph7.4 kmh 29.89 in1012.2 mb - 0.00 in0.0 mm 0.00 in0.0 mm
12:20 AM 72.6°F22.6°C 67.9°F19.9°C 85% 4.6 mph S7.4 kmh S 5.8 mph9.3 kmh 29.89 in1012.2 mb - 0.00 in0.0 mm 0.00 in0.0 mm
12:10 AM 72.4°F22.4°C 68.0°F20.0°C 86% 4.6 mph SSW7.4 kmh SSW 6.9 mph11.1 kmh 29.89 in1012.2 mb - 0.00 in0.0 mm 0.00 in0.0 mm
12:00 AM 72.4°F22.4°C 68.0°F20.0°C 86% 4.6 mph S7.4 kmh S 5.8 mph9.3 kmh 29.89 in1012.2 mb - 0.00 in0.0 mm 0.00 in0.0 mm